createdAt,value
2023-05-14T00:02:10.367Z,7.50
2023-05-14T00:04:37.315Z,7.32
2023-05-14T00:07:04.395Z,7.40
2023-05-14T00:09:32.053Z,6.15
2023-05-14T00:11:59.004Z,7.07
2023-05-14T00:14:26.067Z,7.07
2023-05-14T00:16:54.456Z,7.22
2023-05-14T00:19:21.738Z,7.10
2023-05-14T00:21:48.688Z,7.47
2023-05-14T00:24:15.799Z,7.07
2023-05-14T00:26:42.771Z,7.07
2023-05-14T00:29:09.856Z,7.25
2023-05-14T00:31:40.020Z,7.28
2023-05-14T00:34:07.248Z,7.88
2023-05-14T00:36:34.204Z,7.90
2023-05-14T00:39:01.211Z,7.47
2023-05-14T00:41:28.157Z,8.10
2023-05-14T00:43:55.086Z,7.53
2023-05-14T00:46:22.684Z,8.07
2023-05-14T00:48:51.033Z,7.93
2023-05-14T00:51:19.211Z,8.00
2023-05-14T00:53:47.235Z,7.72
2023-05-14T00:56:15.983Z,7.25
2023-05-14T00:58:42.918Z,7.28
2023-05-14T01:01:10.227Z,6.93
2023-05-14T01:03:37.437Z,7.15
2023-05-14T01:06:23.383Z,7.07
2023-05-14T01:09:09.198Z,7.72
2023-05-14T01:11:40.172Z,6.97
2023-05-14T01:14:22.138Z,6.77
2023-05-14T01:16:52.699Z,6.88
2023-05-14T01:19:33.560Z,6.88
2023-05-14T01:22:00.564Z,6.63
2023-05-14T01:24:27.671Z,6.95
2023-05-14T01:27:02.484Z,6.60
2023-05-14T01:29:32.562Z,6.60
2023-05-14T01:32:06.523Z,6.60
2023-05-14T01:34:35.510Z,6.28
2023-05-14T01:37:04.139Z,7.03
2023-05-14T01:39:32.686Z,7.23
2023-05-14T01:42:00.909Z,7.25
2023-05-14T01:44:28.375Z,7.03
2023-05-14T01:46:55.423Z,7.15
2023-05-14T01:49:22.811Z,7.57
2023-05-14T01:51:49.802Z,6.73
2023-05-14T01:54:16.749Z,7.35
2023-05-14T01:56:43.726Z,6.50
2023-05-14T01:59:11.370Z,6.47
2023-05-14T02:01:38.802Z,6.53
2023-05-14T02:04:05.868Z,6.30
2023-05-14T02:06:32.892Z,6.32
2023-05-14T02:08:59.964Z,6.50
2023-05-14T02:11:27.522Z,6.50
2023-05-14T02:13:54.517Z,6.13
2023-05-14T02:16:21.573Z,6.10
2023-05-14T02:18:48.596Z,5.88
2023-05-14T02:21:15.708Z,6.13
2023-05-14T02:23:43.147Z,6.95
2023-05-14T02:26:11.317Z,6.20
2023-05-14T02:28:38.344Z,6.73
2023-05-14T02:31:05.364Z,6.25
2023-05-14T02:33:32.720Z,6.78
2023-05-14T02:35:59.922Z,6.55
2023-05-14T02:38:27.306Z,6.72
2023-05-14T02:40:56.718Z,7.20
2023-05-14T02:43:23.801Z,6.63
2023-05-14T02:45:50.753Z,7.15
2023-05-14T02:48:17.716Z,6.80
2023-05-14T02:50:44.663Z,7.20
2023-05-14T02:53:11.928Z,6.83
2023-05-14T02:55:38.903Z,6.15
2023-05-14T02:58:05.858Z,6.85
2023-05-14T03:00:32.918Z,6.53
2023-05-14T03:03:00.712Z,6.55
2023-05-14T03:05:27.899Z,6.20
2023-05-14T03:07:54.884Z,6.18
2023-05-14T03:10:22.070Z,6.28
2023-05-14T03:12:49.486Z,6.15
2023-05-14T03:15:16.428Z,6.60
2023-05-14T03:17:43.406Z,6.07
2023-05-14T03:20:11.197Z,6.60
2023-05-14T03:22:38.182Z,5.93
2023-05-14T03:25:05.601Z,5.88
2023-05-14T03:27:33.741Z,5.90
2023-05-14T03:30:00.880Z,6.40
2023-05-14T03:32:28.083Z,6.63
2023-05-14T03:34:55.101Z,6.30
2023-05-14T03:37:22.089Z,5.63
2023-05-14T03:39:49.038Z,6.05
2023-05-14T03:42:16.074Z,6.30
2023-05-14T03:44:42.996Z,6.45
2023-05-14T03:47:09.988Z,5.70
2023-05-14T03:49:37.071Z,5.35
2023-05-14T03:52:04.871Z,6.03
2023-05-14T03:54:31.839Z,6.03
2023-05-14T03:56:59.988Z,5.43
2023-05-14T03:59:27.020Z,6.05
2023-05-14T04:01:54.245Z,6.15
2023-05-14T04:04:21.162Z,5.60
2023-05-14T04:06:48.135Z,5.70
2023-05-14T04:09:15.082Z,5.45
2023-05-14T04:11:42.216Z,6.47
2023-05-14T04:14:09.310Z,5.72
2023-05-14T04:16:36.347Z,5.45
2023-05-14T04:19:09.734Z,5.20
2023-05-14T04:21:37.917Z,5.40
2023-05-14T04:24:05.135Z,5.78
2023-05-14T04:26:32.076Z,5.15
2023-05-14T04:29:02.923Z,4.82
2023-05-14T04:31:30.508Z,5.20
2023-05-14T04:33:57.459Z,4.68
2023-05-14T04:36:24.854Z,4.93
2023-05-14T04:38:51.878Z,5.00
2023-05-14T04:41:18.852Z,5.43
2023-05-14T04:43:46.872Z,4.70
2023-05-14T04:46:14.032Z,4.15
2023-05-14T04:48:41.077Z,4.93
2023-05-14T04:51:08.102Z,3.90
2023-05-14T04:53:35.072Z,4.60
2023-05-14T04:56:02.029Z,4.13
2023-05-14T04:58:33.783Z,4.20
2023-05-14T05:01:06.289Z,4.30
2023-05-14T05:03:33.435Z,4.05
2023-05-14T05:06:00.512Z,4.40
2023-05-14T05:08:27.516Z,4.57
2023-05-14T05:10:54.535Z,4.53
2023-05-14T05:13:21.526Z,4.95
2023-05-14T05:15:48.579Z,4.47
2023-05-14T05:18:15.748Z,4.70
2023-05-14T05:20:42.728Z,4.27
2023-05-14T05:23:09.780Z,4.00
2023-05-14T05:25:36.689Z,5.55
2023-05-14T05:28:03.841Z,4.30
2023-05-14T05:30:30.881Z,3.97
2023-05-14T05:32:58.131Z,3.27
2023-05-14T05:35:25.143Z,3.67
2023-05-14T05:37:52.398Z,4.07
2023-05-14T05:40:19.390Z,3.85
2023-05-14T05:42:46.442Z,3.92
2023-05-14T05:45:13.417Z,3.63
2023-05-14T05:47:40.826Z,3.40
2023-05-14T05:50:08.877Z,3.75
2023-05-14T05:52:37.410Z,3.78
2023-05-14T05:55:04.779Z,3.90
2023-05-14T05:57:31.805Z,3.27
2023-05-14T05:59:58.733Z,3.22
2023-05-14T06:02:26.324Z,3.85
2023-05-14T06:04:53.468Z,3.50
2023-05-14T06:07:20.515Z,3.35
2023-05-14T06:09:47.516Z,3.00
2023-05-14T06:12:14.464Z,2.78
2023-05-14T06:14:41.422Z,3.35
2023-05-14T06:17:08.534Z,3.45
2023-05-14T06:19:35.500Z,3.30
2023-05-14T06:22:02.953Z,3.30
2023-05-14T06:24:30.704Z,3.13
2023-05-14T06:26:57.617Z,3.40
2023-05-14T06:29:25.538Z,3.00
2023-05-14T06:31:52.541Z,3.30
2023-05-14T06:34:19.770Z,3.20
2023-05-14T06:36:46.899Z,2.80
2023-05-14T06:39:13.945Z,3.40
2023-05-14T06:41:40.973Z,3.40
2023-05-14T06:44:13.801Z,3.13
2023-05-14T06:46:40.855Z,2.83
2023-05-14T06:49:07.831Z,3.00
2023-05-14T06:51:34.861Z,3.38
2023-05-14T06:54:01.835Z,3.20
2023-05-14T06:56:28.810Z,4.10
2023-05-14T06:58:55.972Z,3.00
2023-05-14T07:01:23.054Z,3.20
2023-05-14T07:03:50.091Z,3.53
2023-05-14T07:06:17.198Z,3.17
2023-05-14T07:08:47.460Z,3.00
2023-05-14T07:11:15.242Z,3.53
2023-05-14T07:13:42.822Z,3.63
2023-05-14T07:16:10.408Z,3.78
2023-05-14T07:18:37.644Z,2.90
2023-05-14T07:21:06.602Z,3.05
2023-05-14T07:23:36.594Z,3.50
2023-05-14T07:26:07.338Z,3.15
2023-05-14T07:28:34.790Z,3.67
2023-05-14T07:31:01.954Z,3.80
2023-05-14T07:33:29.027Z,3.42
2023-05-14T07:35:55.994Z,3.53
2023-05-14T07:38:23.073Z,3.67
2023-05-14T07:40:50.040Z,3.63
2023-05-14T07:43:17.254Z,3.38
2023-05-14T07:45:44.384Z,3.90
2023-05-14T07:48:11.742Z,3.67
2023-05-14T07:50:39.196Z,3.70
2023-05-14T07:53:06.370Z,3.92
2023-05-14T07:55:33.436Z,3.70
2023-05-14T07:58:00.948Z,3.90
2023-05-14T08:00:28.083Z,3.43
2023-05-14T08:02:56.110Z,3.88
2023-05-14T08:05:23.264Z,4.20
2023-05-14T08:07:50.308Z,4.00
2023-05-14T08:10:17.206Z,3.90
2023-05-14T08:12:44.248Z,3.93
2023-05-14T08:15:11.308Z,3.42
2023-05-14T08:17:38.342Z,3.95
2023-05-14T08:20:06.843Z,3.78
2023-05-14T08:22:34.036Z,3.67
2023-05-14T08:25:02.972Z,3.60
2023-05-14T08:27:30.012Z,3.65
2023-05-14T08:29:57.056Z,3.80
2023-05-14T08:32:24.377Z,3.97
2023-05-14T08:34:52.086Z,4.10
2023-05-14T08:37:19.177Z,3.60
2023-05-14T08:39:46.212Z,3.20
2023-05-14T08:42:13.954Z,3.80
2023-05-14T08:44:50.146Z,3.42
2023-05-14T08:47:20.865Z,4.22
2023-05-14T08:49:53.239Z,3.50
2023-05-14T08:52:22.274Z,3.80
2023-05-14T08:54:51.130Z,3.42
2023-05-14T08:57:20.302Z,4.07
2023-05-14T08:59:47.648Z,4.55
2023-05-14T09:02:17.420Z,4.00
2023-05-14T09:04:45.301Z,3.95
2023-05-14T09:07:12.530Z,4.10
2023-05-14T09:09:40.849Z,3.97
2023-05-14T09:12:08.198Z,4.05
2023-05-14T09:14:35.618Z,4.33
2023-05-14T09:17:03.628Z,4.05
2023-05-14T09:19:30.969Z,4.50
2023-05-14T09:22:01.532Z,4.88
2023-05-14T09:24:31.163Z,4.07
2023-05-14T09:26:58.782Z,4.00
2023-05-14T09:29:27.728Z,4.35
2023-05-14T09:31:58.435Z,4.95
2023-05-14T09:34:30.865Z,4.78
2023-05-14T09:37:02.100Z,4.00
2023-05-14T09:39:30.528Z,4.70
2023-05-14T09:41:57.823Z,4.13
2023-05-14T09:44:25.636Z,4.38
2023-05-14T09:46:53.715Z,4.63
2023-05-14T09:49:21.056Z,4.60
2023-05-14T09:51:49.589Z,4.33
2023-05-14T09:54:16.884Z,4.50
2023-05-14T09:56:44.574Z,4.57
2023-05-14T09:59:11.730Z,4.25
2023-05-14T10:01:39.624Z,4.50
2023-05-14T10:04:09.354Z,4.30
2023-05-14T10:06:42.128Z,5.30
2023-05-14T10:09:20.112Z,5.00
2023-05-14T10:11:51.012Z,4.53
2023-05-14T10:14:24.949Z,4.65
2023-05-14T10:16:53.074Z,5.30
2023-05-14T10:19:23.886Z,4.63
2023-05-14T10:21:59.944Z,4.70
2023-05-14T10:24:27.847Z,5.07
2023-05-14T10:26:55.008Z,4.78
2023-05-14T10:29:33.385Z,5.20
2023-05-14T10:32:08.064Z,5.43
2023-05-14T10:34:46.376Z,4.93
2023-05-14T10:37:18.008Z,4.90
2023-05-14T10:39:58.594Z,4.32
2023-05-14T10:42:39.787Z,4.57
2023-05-14T10:45:09.268Z,4.93
2023-05-14T10:47:38.165Z,5.07
2023-05-14T10:50:10.908Z,4.50
2023-05-14T10:52:38.338Z,4.30
2023-05-14T10:55:12.638Z,4.07
2023-05-14T10:57:41.956Z,4.10
2023-05-14T11:00:10.844Z,4.72
2023-05-14T11:02:43.190Z,4.72
2023-05-14T11:05:16.053Z,5.00
2023-05-14T11:07:44.402Z,4.20
2023-05-14T11:10:19.271Z,4.40
2023-05-14T11:12:51.244Z,4.35
2023-05-14T11:15:21.210Z,4.10
2023-05-14T11:17:49.629Z,4.60
2023-05-14T11:20:17.499Z,4.07
2023-05-14T11:22:46.707Z,4.55
2023-05-14T11:25:15.162Z,4.65
2023-05-14T11:27:43.836Z,4.30
2023-05-14T11:30:18.856Z,4.00
2023-05-14T11:32:49.330Z,4.10
2023-05-14T11:35:17.666Z,3.92
2023-05-14T11:37:51.621Z,4.40
2023-05-14T11:40:19.449Z,4.97
2023-05-14T11:42:46.536Z,4.18
2023-05-14T11:45:14.495Z,4.70
2023-05-14T11:47:42.915Z,4.13
2023-05-14T11:50:11.159Z,4.20
2023-05-14T11:52:41.737Z,4.68
2023-05-14T11:55:12.868Z,4.25
2023-05-14T11:57:41.164Z,4.40
2023-05-14T12:00:21.376Z,4.43
2023-05-14T12:02:51.990Z,4.38
2023-05-14T12:05:19.191Z,4.70
2023-05-14T12:07:47.287Z,4.55
2023-05-14T12:10:14.404Z,4.20
2023-05-14T12:12:44.951Z,4.90
2023-05-14T12:15:17.092Z,5.10
2023-05-14T12:17:50.869Z,4.45
2023-05-14T12:20:18.424Z,4.75
2023-05-14T12:22:45.390Z,4.27
2023-05-14T12:25:13.956Z,4.47
2023-05-14T12:27:41.531Z,3.97
2023-05-14T12:32:41.372Z,4.53
2023-05-14T12:35:09.516Z,4.50
2023-05-14T12:37:37.582Z,4.30
2023-05-14T12:40:09.376Z,4.60
2023-05-14T12:42:36.961Z,4.10
2023-05-14T12:45:07.262Z,4.03
2023-05-14T12:47:34.831Z,3.70
2023-05-14T12:50:02.235Z,3.85
2023-05-14T12:52:37.516Z,4.07
2023-05-14T12:55:09.836Z,3.38
2023-05-14T12:57:39.352Z,3.55
2023-05-14T13:00:08.510Z,3.63
2023-05-14T13:02:43.130Z,3.83
2023-05-14T13:05:11.732Z,3.70
2023-05-14T13:07:39.130Z,3.10
2023-05-14T13:10:06.821Z,3.20
2023-05-14T13:12:34.108Z,3.27
2023-05-14T13:15:01.098Z,3.30
2023-05-14T13:17:28.148Z,3.08
2023-05-14T13:19:55.271Z,3.25
2023-05-14T13:22:22.186Z,3.28
2023-05-14T13:24:49.130Z,3.00
2023-05-14T13:27:16.194Z,3.25
2023-05-14T13:29:43.227Z,3.03
2023-05-14T13:32:10.401Z,3.10
2023-05-14T13:34:37.421Z,3.88
2023-05-14T13:37:04.622Z,2.80
2023-05-14T13:39:31.561Z,2.97
2023-05-14T13:41:58.462Z,2.95
2023-05-14T13:44:25.654Z,2.70
2023-05-14T13:46:53.189Z,2.85
2023-05-14T13:49:20.371Z,2.40
2023-05-14T13:51:47.469Z,2.78
2023-05-14T13:54:14.391Z,2.55
2023-05-14T13:56:41.354Z,2.85
2023-05-14T13:59:08.371Z,3.20
2023-05-14T14:01:35.405Z,2.67
2023-05-14T14:04:02.477Z,2.90
2023-05-14T14:06:32.467Z,2.70
2023-05-14T14:08:59.713Z,2.67
2023-05-14T14:11:27.439Z,3.05
2023-05-14T14:13:54.610Z,2.70
2023-05-14T14:16:21.616Z,2.65
2023-05-14T14:18:48.597Z,2.60
2023-05-14T14:21:18.385Z,2.70
2023-05-14T14:23:47.389Z,4.22
2023-05-14T14:26:14.428Z,3.00
2023-05-14T14:28:41.545Z,3.22
2023-05-14T14:31:08.560Z,4.78
2023-05-14T14:33:35.550Z,5.30
2023-05-14T14:36:02.535Z,4.55
2023-05-14T14:38:29.451Z,3.43
2023-05-14T14:40:57.191Z,3.20
2023-05-14T14:43:24.845Z,3.35
2023-05-14T14:45:51.832Z,3.05
2023-05-14T14:48:32.947Z,3.05
2023-05-14T14:51:03.748Z,3.50
2023-05-14T14:53:31.612Z,3.60
2023-05-14T14:55:58.998Z,3.92
2023-05-14T14:58:26.246Z,3.75
2023-05-14T15:00:58.175Z,3.70
2023-05-14T15:03:25.677Z,3.80
2023-05-14T15:05:53.871Z,4.00
2023-05-14T15:08:24.985Z,3.92
2023-05-14T15:10:52.209Z,4.07
2023-05-14T15:13:19.763Z,3.97
2023-05-14T15:15:47.369Z,4.80
2023-05-14T15:18:14.294Z,4.10
2023-05-14T15:20:41.472Z,4.95
2023-05-14T15:23:09.221Z,4.50
2023-05-14T15:25:36.448Z,4.18
2023-05-14T15:28:05.708Z,3.90
2023-05-14T15:30:33.100Z,4.00
2023-05-14T15:33:00.719Z,4.18
2023-05-14T15:35:28.304Z,4.10
2023-05-14T15:37:59.862Z,4.70
2023-05-14T15:40:27.944Z,5.03
2023-05-14T15:42:55.291Z,4.00
2023-05-14T15:45:31.786Z,4.95
2023-05-14T15:48:00.935Z,4.32
2023-05-14T15:50:28.310Z,4.90
2023-05-14T15:52:55.548Z,4.20
2023-05-14T15:55:38.724Z,4.30
2023-05-14T16:02:18.645Z,5.20
2023-05-14T16:04:45.794Z,6.40
2023-05-14T16:07:13.460Z,5.37
2023-05-14T16:09:40.605Z,5.00
2023-05-14T16:12:08.579Z,6.00
2023-05-14T16:14:35.985Z,5.85
2023-05-14T16:17:03.640Z,5.55
2023-05-14T16:19:30.886Z,5.10
2023-05-14T16:21:57.977Z,5.53
2023-05-14T16:24:24.921Z,5.45
2023-05-14T16:26:51.960Z,4.78
2023-05-14T16:29:19.028Z,4.95
2023-05-14T16:31:46.238Z,5.50
2023-05-14T16:34:15.880Z,5.10
2023-05-14T16:36:43.762Z,5.97
2023-05-14T16:39:11.576Z,5.20
2023-05-14T16:41:38.694Z,5.43
2023-05-14T16:44:05.979Z,4.90
2023-05-14T16:46:33.500Z,5.30
2023-05-14T16:49:02.432Z,5.50
2023-05-14T16:51:32.988Z,5.07
2023-05-14T16:54:00.763Z,5.50
2023-05-14T16:56:27.867Z,5.63
2023-05-14T16:58:54.944Z,5.47
2023-05-14T17:01:22.088Z,5.60
2023-05-14T17:03:51.510Z,6.70
2023-05-14T17:06:18.808Z,6.32
2023-05-14T17:08:45.968Z,6.60
2023-05-14T17:11:15.780Z,6.55
2023-05-14T17:13:42.772Z,7.25
2023-05-14T17:16:09.893Z,6.55
2023-05-14T17:18:37.973Z,5.88
2023-05-14T17:21:06.053Z,6.33
2023-05-14T17:23:33.335Z,6.50
2023-05-14T17:26:00.321Z,7.10
2023-05-14T17:28:28.556Z,6.50
2023-05-14T17:30:56.357Z,7.13
2023-05-14T17:33:23.580Z,7.47
2023-05-14T17:35:50.692Z,10.55
2023-05-14T17:38:17.820Z,8.80
2023-05-14T17:40:45.232Z,8.60
2023-05-14T17:43:12.625Z,10.93
2023-05-14T17:45:52.979Z,10.03
2023-05-14T17:48:24.314Z,10.90
2023-05-14T17:50:52.160Z,9.20
2023-05-14T17:53:19.626Z,8.82
2023-05-14T17:55:47.080Z,8.95
2023-05-14T17:58:15.610Z,9.43
2023-05-14T18:00:45.536Z,7.90
2023-05-14T18:03:14.415Z,8.82
2023-05-14T18:05:41.831Z,6.95
2023-05-14T18:08:09.882Z,8.18
2023-05-14T18:10:37.249Z,10.77
2023-05-14T18:13:07.769Z,9.27
2023-05-14T18:15:37.815Z,8.95
2023-05-14T18:18:05.498Z,10.00
2023-05-14T18:20:34.145Z,11.05
2023-05-14T18:23:03.095Z,11.20
2023-05-14T18:25:30.276Z,10.00
2023-05-14T18:27:57.624Z,9.63
2023-05-14T18:30:24.679Z,9.02
2023-05-14T18:32:52.091Z,8.52
2023-05-14T18:35:19.481Z,8.33
2023-05-14T18:37:46.811Z,8.90
2023-05-14T18:40:16.312Z,9.82
2023-05-14T18:42:45.642Z,8.18
2023-05-14T18:45:12.748Z,9.27
2023-05-14T18:47:40.230Z,8.87
2023-05-14T18:50:08.350Z,8.93
2023-05-14T18:52:35.702Z,11.05
2023-05-14T18:55:03.000Z,9.18
2023-05-14T18:57:32.435Z,9.20
2023-05-14T19:00:03.488Z,10.10
2023-05-14T19:02:31.764Z,9.90
2023-05-14T19:04:59.298Z,7.90
2023-05-14T19:07:27.867Z,8.23
2023-05-14T19:09:55.177Z,7.53
2023-05-14T19:12:22.398Z,6.87
2023-05-14T19:14:49.338Z,7.10
2023-05-14T19:17:18.350Z,6.85
2023-05-14T19:19:46.122Z,7.18
2023-05-14T19:22:13.172Z,7.22
2023-05-14T19:24:40.251Z,9.00
2023-05-14T19:27:07.798Z,9.32
2023-05-14T19:29:36.866Z,7.82
2023-05-14T19:32:04.769Z,6.72
2023-05-14T19:34:31.785Z,7.57
2023-05-14T19:36:59.233Z,8.77
2023-05-14T19:39:29.415Z,9.07
2023-05-14T19:41:56.546Z,9.25
2023-05-14T19:44:23.718Z,8.30
2023-05-14T19:46:51.147Z,8.20
2023-05-14T19:49:18.215Z,9.90
2023-05-14T19:51:45.313Z,9.75
2023-05-14T19:54:12.375Z,8.50
2023-05-14T19:56:39.609Z,8.50
2023-05-14T19:59:07.064Z,9.00
2023-05-14T20:01:34.881Z,8.93
2023-05-14T20:04:04.360Z,9.35
2023-05-14T20:06:32.159Z,9.10
2023-05-14T20:08:59.440Z,9.52
2023-05-14T20:11:26.858Z,9.32
2023-05-14T20:13:53.938Z,9.07
2023-05-14T20:16:21.738Z,10.77
2023-05-14T20:18:49.106Z,12.43
2023-05-14T20:21:16.181Z,11.48
2023-05-14T20:23:43.238Z,12.25
2023-05-14T20:26:10.541Z,12.83
2023-05-14T20:28:37.509Z,13.18
2023-05-14T20:31:07.882Z,13.52
2023-05-14T20:33:35.385Z,14.32
2023-05-14T20:36:04.525Z,14.15
2023-05-14T20:38:32.824Z,13.30
2023-05-14T20:40:59.807Z,12.55
2023-05-14T20:43:30.568Z,13.32
2023-05-14T20:45:59.046Z,14.38
2023-05-14T20:48:26.414Z,12.82
2023-05-14T20:50:53.516Z,14.13
2023-05-14T20:53:20.520Z,13.43
2023-05-14T20:55:47.633Z,17.90
2023-05-14T20:58:14.771Z,18.30
2023-05-14T21:00:43.494Z,21.58
2023-05-14T21:03:10.842Z,22.83
2023-05-14T21:05:38.369Z,24.10
2023-05-14T21:08:05.967Z,22.27
2023-05-14T21:10:33.096Z,23.42
2023-05-14T21:13:03.018Z,24.52
2023-05-14T21:15:30.784Z,21.57
2023-05-14T21:17:57.828Z,21.05
2023-05-14T21:20:24.980Z,21.33
2023-05-14T21:22:52.012Z,20.02
2023-05-14T21:25:19.220Z,18.80
2023-05-14T21:27:46.343Z,19.20
2023-05-14T21:30:13.910Z,17.58
2023-05-14T21:32:40.980Z,15.80
2023-05-14T21:35:08.377Z,17.38
2023-05-14T21:37:35.436Z,17.38
2023-05-14T21:40:02.552Z,18.17
2023-05-14T21:42:29.627Z,18.35
2023-05-14T21:44:56.662Z,18.98
2023-05-14T21:47:23.753Z,19.05
2023-05-14T21:49:50.727Z,18.63
2023-05-14T21:52:17.762Z,18.67
2023-05-14T21:54:44.814Z,20.38
2023-05-14T21:57:11.763Z,19.33
2023-05-14T21:59:38.789Z,19.73
2023-05-14T22:02:07.291Z,20.25
2023-05-14T22:04:35.559Z,19.60
2023-05-14T22:07:02.889Z,19.58
2023-05-14T22:09:30.503Z,18.42
2023-05-14T22:11:58.420Z,18.40
2023-05-14T22:14:27.372Z,19.00
2023-05-14T22:16:54.573Z,18.97
2023-05-14T22:19:22.400Z,18.45
2023-05-14T22:21:49.603Z,17.17
2023-05-14T22:24:16.765Z,17.67
2023-05-14T22:26:44.076Z,18.25
2023-05-14T22:29:11.284Z,17.47
2023-05-14T22:31:38.400Z,20.27
2023-05-14T22:34:05.694Z,16.58
2023-05-14T22:36:32.662Z,16.73
2023-05-14T22:38:59.651Z,18.50
2023-05-14T22:41:26.782Z,17.00
2023-05-14T22:43:53.769Z,14.80
2023-05-14T22:46:21.218Z,15.68
2023-05-14T22:48:49.293Z,18.33
2023-05-14T22:51:16.736Z,17.05
2023-05-14T22:53:43.915Z,16.90
2023-05-14T22:56:11.064Z,16.27
2023-05-14T22:58:38.255Z,17.23
2023-05-14T23:01:05.433Z,17.23
2023-05-14T23:03:32.563Z,17.35
2023-05-14T23:05:59.597Z,15.97
2023-05-14T23:08:26.625Z,15.48
2023-05-14T23:10:53.977Z,16.58
2023-05-14T23:13:21.269Z,16.05
2023-05-14T23:15:48.825Z,14.32
2023-05-14T23:18:15.980Z,16.40
2023-05-14T23:20:43.416Z,18.10
2023-05-14T23:23:10.432Z,16.50
2023-05-14T23:25:38.321Z,16.30
2023-05-14T23:28:05.486Z,16.15
2023-05-14T23:30:32.471Z,15.90
2023-05-14T23:32:59.541Z,16.35
2023-05-14T23:35:26.870Z,16.23
2023-05-14T23:37:55.388Z,16.48
2023-05-14T23:40:22.417Z,17.58
2023-05-14T23:42:49.396Z,16.10
2023-05-14T23:45:16.606Z,17.90
2023-05-14T23:47:43.658Z,18.13
2023-05-14T23:50:10.868Z,17.23
2023-05-14T23:52:37.984Z,17.38
2023-05-14T23:55:05.430Z,17.00
2023-05-14T23:57:32.427Z,18.25
2023-05-14T23:59:59.447Z,17.88
